Archival Weather

NSFA McMurdo Sound

NSFA McMurdo Sound, Antarctica (NZCM)

Report from: Friday, September 23, 2022 4:55 AM UTC
Current time: Sunday, December 4, 2022 12:25 PM UTC

Current weather
Weather history
Weather forecast

Temperature-19.2°C (-2.6°F)
Wind chill-23.8°C (-10.8°F)
Dew point-27.3°C (-17.1°F)
Winds 3 kts (1.5 m/s, 3.5 mph) Vrb
Winds variableWinds variable
Visibility6.2 mi. (10 km)
Clouds Scattered clouds 5,000 ft. (1,524 m)
Ceiling: Broken clouds 7,000 ft. (2,134 m)
Overcast 10,000 ft. (3,048 m)
Altimeter28.63 in.Hg (970 mB)
Relative humidity49 %
Density altitude-2,810 ft. (-856 m)
Sea-level pressure107.0 kPa (1070 mB, 31.60 in.Hg)
Remarks Fully automated report
System requires maintenance
Automated weather observing station with precipitation discriminator
Flight conditions Visual Meteorological Conditions
Raw dataNZCM 230455Z AUTO VRB03KT 9999 SCT050 BKN070 OVC100 M19/M27 A2863 RMK AO2 SLP700 T11921273 $
An error has occurred. This application may no longer respond until reloaded. Reload 🗙